Atlas, Michigan
Current Conditions -  °F | °C
As of 4:53 AM on Saturday 29 Nov 2014 (Local Time) from KFNT Reporting Station
Overcast Overcast  
Wind Chill: -5°   Ceiling: 5500
Heat Index:   Visibility: 9mi
Dew Point: -4°   Wind: 10mph
Humidity: 73%   Direction: 170°S
Pressure: 29.95"   Gusts: NA
Location:  42.94°N, 83.53°W
Report Text: KFNT 290953Z AUTO 17009KT 9SM OVC055 00/M04 A2995 RMK AO2 SLP154 T00001044
Loading
Personal Weather Stations






























Interactive Weather Map New forecast layout! Learn more

10-Day Weather Forecast

Advertisements
Track Severe Weather on mobile